sensor_id;sensor_type;location;lat;lon;timestamp;P1;durP1;ratioP1;P2;durP2;ratioP2
27979;SDS011;15315;50.836;4.430;2022-09-13T00:05:03;8.23;;;2.92;;
27979;SDS011;15315;50.836;4.430;2022-09-13T00:15:04;7.15;;;2.92;;
27979;SDS011;15315;50.836;4.430;2022-09-13T00:25:05;5.68;;;2.80;;
27979;SDS011;15315;50.836;4.430;2022-09-13T00:35:06;7.22;;;2.75;;
27979;SDS011;15315;50.836;4.430;2022-09-13T00:55:49;5.43;;;2.83;;
27979;SDS011;15315;50.836;4.430;2022-09-13T01:05:35;4.55;;;2.75;;
27979;SDS011;15315;50.836;4.430;2022-09-13T01:15:37;4.35;;;2.58;;
27979;SDS011;15315;50.836;4.430;2022-09-13T01:35:56;10.05;;;2.30;;
27979;SDS011;15315;50.836;4.430;2022-09-13T01:56:11;4.88;;;2.13;;
27979;SDS011;15315;50.836;4.430;2022-09-13T02:06:17;10.15;;;2.55;;
27979;SDS011;15315;50.836;4.430;2022-09-13T02:16:35;4.63;;;2.07;;
27979;SDS011;15315;50.836;4.430;2022-09-13T02:26:37;4.90;;;2.22;;
27979;SDS011;15315;50.836;4.430;2022-09-13T02:36:38;4.75;;;2.33;;
27979;SDS011;15315;50.836;4.430;2022-09-13T03:06:49;3.08;;;2.42;;
27979;SDS011;15315;50.836;4.430;2022-09-13T03:36:55;9.30;;;2.63;;
27979;SDS011;15315;50.836;4.430;2022-09-13T03:46:56;3.63;;;2.35;;
27979;SDS011;15315;50.836;4.430;2022-09-13T04:07:08;10.10;;;2.60;;
27979;SDS011;15315;50.836;4.430;2022-09-13T04:17:08;5.30;;;3.35;;
27979;SDS011;15315;50.836;4.430;2022-09-13T04:27:09;11.48;;;3.00;;
27979;SDS011;15315;50.836;4.430;2022-09-13T04:37:09;15.45;;;6.22;;
27979;SDS011;15315;50.836;4.430;2022-09-13T04:47:10;9.20;;;2.88;;
27979;SDS011;15315;50.836;4.430;2022-09-13T04:57:10;16.40;;;3.72;;
27979;SDS011;15315;50.836;4.430;2022-09-13T05:07:11;11.50;;;3.20;;
27979;SDS011;15315;50.836;4.430;2022-09-13T05:17:11;6.93;;;2.70;;
27979;SDS011;15315;50.836;4.430;2022-09-13T05:27:11;9.07;;;3.05;;
27979;SDS011;15315;50.836;4.430;2022-09-13T05:37:12;7.05;;;3.10;;
27979;SDS011;15315;50.836;4.430;2022-09-13T05:47:12;12.02;;;3.53;;
27979;SDS011;15315;50.836;4.430;2022-09-13T05:57:13;13.73;;;3.90;;
27979;SDS011;15315;50.836;4.430;2022-09-13T06:07:13;12.18;;;4.00;;
27979;SDS011;15315;50.836;4.430;2022-09-13T06:17:13;17.40;;;5.18;;
27979;SDS011;15315;50.836;4.430;2022-09-13T06:27:14;19.77;;;5.80;;
27979;SDS011;15315;50.836;4.430;2022-09-13T06:37:14;25.40;;;5.88;;
27979;SDS011;15315;50.836;4.430;2022-09-13T06:47:14;7.97;;;3.80;;
27979;SDS011;15315;50.836;4.430;2022-09-13T06:57:14;15.63;;;5.15;;
27979;SDS011;15315;50.836;4.430;2022-09-13T07:07:15;16.85;;;4.70;;
27979;SDS011;15315;50.836;4.430;2022-09-13T07:17:15;9.52;;;4.25;;
27979;SDS011;15315;50.836;4.430;2022-09-13T07:27:15;27.40;;;6.65;;
27979;SDS011;15315;50.836;4.430;2022-09-13T07:37:15;14.63;;;4.65;;
27979;SDS011;15315;50.836;4.430;2022-09-13T07:47:16;20.55;;;6.60;;
27979;SDS011;15315;50.836;4.430;2022-09-13T07:57:16;21.10;;;5.43;;
27979;SDS011;15315;50.836;4.430;2022-09-13T08:07:16;29.23;;;6.07;;
27979;SDS011;15315;50.836;4.430;2022-09-13T08:17:16;14.13;;;4.53;;
27979;SDS011;15315;50.836;4.430;2022-09-13T08:27:17;28.95;;;7.85;;
27979;SDS011;15315;50.836;4.430;2022-09-13T08:37:17;27.52;;;10.20;;
27979;SDS011;15315;50.836;4.430;2022-09-13T09:07:28;25.03;;;5.80;;
27979;SDS011;15315;50.836;4.430;2022-09-13T09:17:33;9.93;;;4.88;;
27979;SDS011;15315;50.836;4.430;2022-09-13T09:27:36;18.75;;;5.45;;
27979;SDS011;15315;50.836;4.430;2022-09-13T09:37:36;24.33;;;7.60;;
27979;SDS011;15315;50.836;4.430;2022-09-13T09:47:46;17.60;;;6.50;;
27979;SDS011;15315;50.836;4.430;2022-09-13T09:57:48;18.98;;;5.78;;
27979;SDS011;15315;50.836;4.430;2022-09-13T10:07:56;11.23;;;5.22;;
27979;SDS011;15315;50.836;4.430;2022-09-13T10:18:02;20.58;;;6.00;;
27979;SDS011;15315;50.836;4.430;2022-09-13T10:28:02;21.30;;;6.00;;
27979;SDS011;15315;50.836;4.430;2022-09-13T10:38:04;16.95;;;6.07;;
27979;SDS011;15315;50.836;4.430;2022-09-13T10:48:14;9.50;;;4.53;;
27979;SDS011;15315;50.836;4.430;2022-09-13T10:58:15;8.18;;;3.70;;
27979;SDS011;15315;50.836;4.430;2022-09-13T11:18:36;6.47;;;3.08;;
27979;SDS011;15315;50.836;4.430;2022-09-13T11:38:56;11.05;;;3.40;;
27979;SDS011;15315;50.836;4.430;2022-09-13T11:59:18;11.20;;;4.70;;
27979;SDS011;15315;50.836;4.430;2022-09-13T12:29:39;9.60;;;3.40;;
27979;SDS011;15315;50.836;4.430;2022-09-13T13:00:17;15.38;;;4.15;;
27979;SDS011;15315;50.836;4.430;2022-09-13T13:10:30;7.78;;;3.80;;
27979;SDS011;15315;50.836;4.430;2022-09-13T13:20:43;9.18;;;3.50;;
27979;SDS011;15315;50.836;4.430;2022-09-13T13:30:50;9.35;;;4.00;;
27979;SDS011;15315;50.836;4.430;2022-09-13T13:40:51;17.42;;;3.75;;
27979;SDS011;15315;50.836;4.430;2022-09-13T14:01:20;20.05;;;4.38;;
27979;SDS011;15315;50.836;4.430;2022-09-13T14:21:26;6.55;;;4.22;;
27979;SDS011;15315;50.836;4.430;2022-09-13T14:31:28;11.83;;;5.03;;
27979;SDS011;15315;50.836;4.430;2022-09-13T14:41:29;12.43;;;5.03;;
27979;SDS011;15315;50.836;4.430;2022-09-13T15:01:34;10.47;;;5.13;;
27979;SDS011;15315;50.836;4.430;2022-09-13T15:11:36;17.57;;;5.20;;
27979;SDS011;15315;50.836;4.430;2022-09-13T15:21:36;13.25;;;5.78;;
27979;SDS011;15315;50.836;4.430;2022-09-13T15:31:37;13.30;;;6.40;;
27979;SDS011;15315;50.836;4.430;2022-09-13T15:41:40;12.05;;;6.13;;
27979;SDS011;15315;50.836;4.430;2022-09-13T15:51:56;10.80;;;6.20;;
27979;SDS011;15315;50.836;4.430;2022-09-13T16:01:56;13.65;;;5.63;;
27979;SDS011;15315;50.836;4.430;2022-09-13T16:11:57;15.35;;;5.65;;
27979;SDS011;15315;50.836;4.430;2022-09-13T16:21:57;8.38;;;5.75;;
27979;SDS011;15315;50.836;4.430;2022-09-13T16:31:57;13.95;;;5.25;;
27979;SDS011;15315;50.836;4.430;2022-09-13T16:41:58;13.40;;;6.28;;
27979;SDS011;15315;50.836;4.430;2022-09-13T16:51:59;12.13;;;7.65;;
27979;SDS011;15315;50.836;4.430;2022-09-13T17:02:00;13.98;;;7.82;;
27979;SDS011;15315;50.836;4.430;2022-09-13T17:12:00;10.48;;;6.32;;
27979;SDS011;15315;50.836;4.430;2022-09-13T17:22:02;12.68;;;6.20;;
27979;SDS011;15315;50.836;4.430;2022-09-13T17:32:03;10.57;;;7.03;;
27979;SDS011;15315;50.836;4.430;2022-09-13T17:42:04;13.23;;;7.88;;
27979;SDS011;15315;50.836;4.430;2022-09-13T17:52:05;14.57;;;7.10;;
27979;SDS011;15315;50.836;4.430;2022-09-13T18:02:07;12.35;;;7.30;;
27979;SDS011;15315;50.836;4.430;2022-09-13T18:12:08;9.50;;;7.35;;
27979;SDS011;15315;50.836;4.430;2022-09-13T18:22:08;12.10;;;8.90;;
27979;SDS011;15315;50.836;4.430;2022-09-13T18:32:08;14.82;;;9.27;;
27979;SDS011;15315;50.836;4.430;2022-09-13T18:42:09;11.93;;;8.88;;
27979;SDS011;15315;50.836;4.430;2022-09-13T18:52:09;10.75;;;8.07;;
27979;SDS011;15315;50.836;4.430;2022-09-13T19:02:10;12.18;;;7.28;;
27979;SDS011;15315;50.836;4.430;2022-09-13T19:12:10;8.73;;;5.47;;
27979;SDS011;15315;50.836;4.430;2022-09-13T19:22:10;16.02;;;6.65;;
27979;SDS011;15315;50.836;4.430;2022-09-13T19:32:11;11.80;;;6.88;;
27979;SDS011;15315;50.836;4.430;2022-09-13T19:42:11;9.35;;;7.75;;
27979;SDS011;15315;50.836;4.430;2022-09-13T19:52:11;11.82;;;8.02;;
27979;SDS011;15315;50.836;4.430;2022-09-13T20:02:11;10.90;;;8.25;;
27979;SDS011;15315;50.836;4.430;2022-09-13T20:12:12;10.38;;;7.57;;
27979;SDS011;15315;50.836;4.430;2022-09-13T20:22:13;9.57;;;8.10;;
27979;SDS011;15315;50.836;4.430;2022-09-13T20:32:13;9.90;;;7.82;;
27979;SDS011;15315;50.836;4.430;2022-09-13T20:42:13;9.23;;;7.20;;
27979;SDS011;15315;50.836;4.430;2022-09-13T20:52:14;9.93;;;7.72;;
27979;SDS011;15315;50.836;4.430;2022-09-13T21:02:15;10.63;;;8.65;;
27979;SDS011;15315;50.836;4.430;2022-09-13T21:12:15;13.88;;;9.73;;
27979;SDS011;15315;50.836;4.430;2022-09-13T21:22:15;15.32;;;9.45;;
27979;SDS011;15315;50.836;4.430;2022-09-13T21:32:16;17.92;;;10.98;;
27979;SDS011;15315;50.836;4.430;2022-09-13T21:42:16;16.63;;;11.50;;
27979;SDS011;15315;50.836;4.430;2022-09-13T21:52:16;15.75;;;12.38;;
27979;SDS011;15315;50.836;4.430;2022-09-13T22:02:16;17.98;;;11.60;;
27979;SDS011;15315;50.836;4.430;2022-09-13T22:12:17;26.17;;;15.82;;
27979;SDS011;15315;50.836;4.430;2022-09-13T22:22:17;20.42;;;13.85;;
27979;SDS011;15315;50.836;4.430;2022-09-13T22:32:17;12.93;;;10.00;;
27979;SDS011;15315;50.836;4.430;2022-09-13T22:42:17;9.98;;;8.50;;
27979;SDS011;15315;50.836;4.430;2022-09-13T22:52:18;12.68;;;7.88;;
27979;SDS011;15315;50.836;4.430;2022-09-13T23:02:18;16.55;;;7.15;;
27979;SDS011;15315;50.836;4.430;2022-09-13T23:12:18;17.55;;;6.70;;
27979;SDS011;15315;50.836;4.430;2022-09-13T23:22:18;13.25;;;8.05;;
27979;SDS011;15315;50.836;4.430;2022-09-13T23:32:19;12.95;;;7.35;;
27979;SDS011;15315;50.836;4.430;2022-09-13T23:42:19;13.93;;;7.85;;
27979;SDS011;15315;50.836;4.430;2022-09-13T23:52:20;14.35;;;7.68;;
